| time (UTC) | temp C | wind direction | speed KPH | gust KPH | rain 1hr cm | rain 24hr cm | rain mn cm | humidity % | barometer mb |
| 20260504175055 | 21 | 242 | 12.9 | 25.7 | 0.00 | 0.00 | 0.00 | 34 | 1008.4 |
| 20260504174555 | 21 | 220 | 12.9 | 27.4 | 0.00 | 0.00 | 0.00 | 34 | 1008.5 |
| 20260504174055 | 21 | 213 | 11.3 | 27.4 | 0.00 | 0.00 | 0.00 | 33 | 1008.5 |
| 20260504173555 | 20 | 213 | 8.0 | 25.7 | 0.00 | 0.00 | 0.00 | 35 | 1008.5 |
| 20260504173054 | 20 | 218 | 12.9 | 25.7 | 0.00 | 0.00 | 0.00 | 35 | 1008.6 |
| 20260504172555 | 20 | 194 | 8.0 | 29.0 | 0.00 | 0.00 | 0.00 | 36 | 1008.6 |
| 20260504172054 | 20 | 240 | 16.1 | 29.0 | 0.00 | 0.00 | 0.00 | 35 | 1008.8 |
| 20260504171555 | 20 | 217 | 9.7 | 27.4 | 0.00 | 0.00 | 0.00 | 35 | 1008.8 |
| 20260504171055 | 20 | 279 | 12.9 | 27.4 | 0.00 | 0.00 | 0.00 | 35 | 1008.9 |
| 20260504170554 | 20 | 203 | 9.7 | 27.4 | 0.00 | 0.00 | 0.00 | 35 | 1008.9 |
| 20260504151056 | 17 | 267 | 8.0 | 27.4 | 0.00 | 0.00 | 0.00 | 45 | 1010.1 |
| 20260504150555 | 17 | 228 | 9.7 | 25.7 | 0.00 | 0.00 | 0.00 | 46 | 1010.2 |
| 20260504141051 | 16 | 203 | 9.7 | 22.5 | 0.00 | 0.00 | 0.00 | 55 | 1010.3 |
| 20260504140551 | 16 | 242 | 9.7 | 24.1 | 0.00 | 0.00 | 0.00 | 55 | 1010.4 |
| 20260504130555 | 13 | 219 | 8.0 | 22.5 | 0.00 | 0.00 | 0.00 | 66 | 1010.8 |
| 20260504120106 | 12 | 190 | 6.4 | 14.5 | 0.00 | 0.00 | 0.00 | 74 | 1011.1 |
| 20260504110555 | 11 | 205 | 4.8 | 14.5 | 0.00 | 0.00 | 0.00 | 76 | 1011.3 |
| 20260504100557 | 10 | 216 | 3.2 | 14.5 | 0.00 | 0.00 | 0.00 | 74 | 1011.5 |
| 20260504090112 | 10 | 227 | 0.0 | 9.7 | 0.00 | 0.00 | 0.00 | 70 | 1011.5 |
| 20260504081606 | 10 | 230 | 3.2 | 11.3 | 0.00 | 0.00 | 0.00 | 67 | 1011.4 |
| 20260504081056 | 10 | 236 | 3.2 | 11.3 | 0.00 | 0.00 | 0.00 | 67 | 1011.4 |
| 20260504080554 | 10 | 0 | 3.2 | 9.7 | 0.00 | 0.00 | 0.00 | 66 | 1011.3 |
| 20260504050555 | 11 | 0 | 1.6 | 11.3 | 0.00 | 0.00 | 0.00 | 57 | 1010.8 |
| 20260504045557 | 11 | 0 | 0.0 | 9.7 | 0.00 | 0.00 | 0.00 | 56 | 1010.8 |
| 20260504045056 | 11 | 0 | 0.0 | 4.8 | 0.00 | 0.00 | 0.00 | 56 | 1010.9 |
| 20260504044605 | 11 | 239 | 1.6 | 4.8 | 0.00 | 0.00 | 0.00 | 56 | 1010.9 |
| 20260504044054 | 11 | 245 | 0.0 | 4.8 | 0.00 | 0.00 | 0.00 | 55 | 1010.8 |
| 20260504043555 | 11 | 0 | 0.0 | 0.0 | 0.00 | 0.00 | 0.00 | 55 | 1010.8 |
| 20260504043054 | 11 | 0 | 0.0 | 3.2 | 0.00 | 0.00 | 0.00 | 55 | 1010.8 |
| 20260504042555 | 11 | 0 | 0.0 | 3.2 | 0.00 | 0.00 | 0.00 | 55 | 1010.8 |
| 20260504042052 | 11 | 245 | 0.0 | 6.4 | 0.00 | 0.00 | 0.00 | 54 | 1010.8 |
| 20260504041556 | 11 | 0 | 0.0 | 6.4 | 0.00 | 0.00 | 0.00 | 54 | 1010.7 |
| 20260504041052 | 11 | 0 | 0.0 | 6.4 | 0.00 | 0.00 | 0.00 | 54 | 1010.7 |
| 20260504040553 | 11 | 0 | 0.0 | 3.2 | 0.00 | 0.00 | 0.00 | 54 | 1010.8 |
| 20260504040112 | 11 | 0 | 0.0 | 4.8 | 0.00 | 0.00 | 0.00 | 53 | 1010.7 |
| 20260504035557 | 12 | 0 | 0.0 | 4.8 | 0.00 | 0.00 | 0.00 | 53 | 1010.6 |
| 20260504035053 | 12 | 0 | 0.0 | 3.2 | 0.00 | 0.00 | 0.00 | 53 | 1010.6 |
| 20260504034604 | 12 | 0 | 0.0 | 3.2 | 0.00 | 0.00 | 0.00 | 52 | 1010.6 |
| 20260504034052 | 12 | 0 | 0.0 | 6.4 | 0.00 | 0.00 | 0.00 | 52 | 1010.4 |
| 20260504033556 | 12 | 0 | 0.0 | 6.4 | 0.00 | 0.00 | 0.00 | 51 | 1010.5 |
| 20260504033056 | 12 | 219 | 0.0 | 6.4 | 0.00 | 0.00 | 0.00 | 51 | 1010.4 |
| 20260504032554 | 12 | 0 | 0.0 | 11.3 | 0.00 | 0.00 | 0.00 | 50 | 1010.3 |
| 20260504032051 | 12 | 221 | 3.2 | 11.3 | 0.00 | 0.00 | 0.00 | 50 | 1010.4 |
| 20260504031556 | 12 | 240 | 3.2 | 11.3 | 0.00 | 0.00 | 0.00 | 49 | 1010.3 |
| 20260504031052 | 12 | 0 | 0.0 | 4.8 | 0.00 | 0.00 | 0.00 | 47 | 1010.3 |
| 20260504030552 | 12 | 0 | 0.0 | 4.8 | 0.00 | 0.00 | 0.00 | 46 | 1010.3 |
| 20260504030054 | 12 | 269 | 0.0 | 6.4 | 0.00 | 0.00 | 0.00 | 46 | 1010.3 |
| 20260504025556 | 12 | 0 | 0.0 | 6.4 | 0.00 | 0.00 | 0.00 | 45 | 1010.2 |
| 20260504025056 | 12 | 0 | 0.0 | 6.4 | 0.00 | 0.00 | 0.00 | 44 | 1010.4 |
| 20260504024555 | 13 | 0 | 0.0 | 6.4 | 0.00 | 0.00 | 0.00 | 44 | 1010.3 |
| 20260504024053 | 13 | 257 | 0.0 | 6.4 | 0.00 | 0.00 | 0.00 | 43 | 1010.3 |
| 20260504023552 | 13 | 254 | 0.0 | 3.2 | 0.00 | 0.00 | 0.00 | 43 | 1010.3 |
| 20260504023057 | 13 | 253 | 0.0 | 3.2 | 0.00 | 0.00 | 0.00 | 42 | 1010.3 |
| 20260504022553 | 13 | 0 | 0.0 | 3.2 | 0.00 | 0.00 | 0.00 | 42 | 1010.2 |
| 20260504022055 | 13 | 242 | 0.0 | 8.0 | 0.00 | 0.00 | 0.00 | 42 | 1010.3 |
| 20260504021552 | 13 | 0 | 1.6 | 9.7 | 0.00 | 0.00 | 0.00 | 42 | 1010.3 |
| 20260504021052 | 13 | 155 | 0.0 | 9.7 | 0.00 | 0.00 | 0.00 | 42 | 1010.2 |
| 20260504020555 | 13 | 0 | 1.6 | 9.7 | 0.00 | 0.00 | 0.00 | 41 | 1010.1 |
| 20260504020053 | 13 | 0 | 0.0 | 6.4 | 0.00 | 0.00 | 0.00 | 41 | 1010.2 |
| 20260504015552 | 13 | 290 | 0.0 | 6.4 | 0.00 | 0.00 | 0.00 | 41 | 1010.1 |
| 20260504015055 | 13 | 0 | 1.6 | 6.4 | 0.00 | 0.00 | 0.00 | 41 | 1010.2 |
| 20260504014555 | 13 | 0 | 0.0 | 6.4 | 0.00 | 0.00 | 0.00 | 40 | 1010.1 |
| 20260504014054 | 13 | 0 | 0.0 | 6.4 | 0.00 | 0.00 | 0.00 | 40 | 1010.1 |
| 20260504013552 | 13 | 0 | 0.0 | 9.7 | 0.00 | 0.00 | 0.00 | 40 | 1010.0 |
| 20260504013113 | 13 | 0 | 1.6 | 9.7 | 0.00 | 0.00 | 0.00 | 40 | 1010.0 |
| 20260504012554 | 13 | 0 | 1.6 | 6.4 | 0.00 | 0.00 | 0.00 | 39 | 1009.9 |
| 20260504012052 | 13 | 0 | 0.0 | 4.8 | 0.00 | 0.00 | 0.00 | 39 | 1009.9 |
| 20260504011556 | 14 | 0 | 0.0 | 6.4 | 0.00 | 0.00 | 0.00 | 39 | 1009.8 |
| 20260504011051 | 14 | 0 | 1.6 | 6.4 | 0.00 | 0.00 | 0.00 | 39 | 1009.8 |
| 20260504010551 | 14 | 234 | 0.0 | 8.0 | 0.00 | 0.00 | 0.00 | 39 | 1009.7 |
| 20260504010101 | 14 | 263 | 0.0 | 8.0 | 0.00 | 0.00 | 0.00 | 39 | 1009.8 |
| 20260504005553 | 14 | 232 | 1.6 | 6.4 | 0.00 | 0.00 | 0.00 | 38 | 1009.7 |
| 20260504005052 | 14 | 258 | 1.6 | 9.7 | 0.00 | 0.00 | 0.00 | 38 | 1009.6 |
| 20260504004609 | 14 | 0 | 1.6 | 9.7 | 0.00 | 0.00 | 0.00 | 37 | 1009.5 |
| 20260504004055 | 14 | 0 | 1.6 | 11.3 | 0.00 | 0.00 | 0.00 | 37 | 1009.5 |
| 20260504003554 | 14 | 257 | 3.2 | 11.3 | 0.00 | 0.00 | 0.00 | 37 | 1009.4 |
| 20260504003057 | 15 | 286 | 1.6 | 12.9 | 0.00 | 0.00 | 0.00 | 37 | 1009.2 |
| 20260504002554 | 15 | 269 | 3.2 | 14.5 | 0.00 | 0.00 | 0.00 | 36 | 1009.1 |
| 20260504002055 | 15 | 263 | 3.2 | 14.5 | 0.00 | 0.00 | 0.00 | 36 | 1009.1 |
| 20260504001552 | 15 | 259 | 3.2 | 14.5 | 0.00 | 0.00 | 0.00 | 36 | 1009.1 |
| 20260504001055 | 15 | 281 | 4.8 | 12.9 | 0.00 | 0.00 | 0.00 | 36 | 1009.1 |
| 20260504000555 | 15 | 309 | 3.2 | 16.1 | 0.00 | 0.00 | 0.00 | 35 | 1009.1 |
| 20260504000114 | 15 | 263 | 3.2 | 16.1 | 0.00 | 0.00 | 0.00 | 35 | 1009.0 |
| 20260503235554 | 15 | 297 | 4.8 | 16.1 | 0.00 | 0.00 | 0.00 | 35 | 1009.0 |
| 20260503235059 | 15 | 250 | 3.2 | 17.7 | 0.00 | 0.00 | 0.00 | 35 | 1008.9 |
| 20260503234555 | 15 | 304 | 8.0 | 17.7 | 0.00 | 0.00 | 0.00 | 35 | 1009.0 |
| 20260503234052 | 15 | 282 | 4.8 | 16.1 | 0.00 | 0.00 | 0.00 | 34 | 1008.8 |
| 20260503233555 | 15 | 273 | 3.2 | 20.9 | 0.00 | 0.00 | 0.00 | 34 | 1008.8 |
| 20260503233057 | 15 | 308 | 6.4 | 20.9 | 0.00 | 0.00 | 0.00 | 34 | 1008.7 |
| 20260503232554 | 15 | 252 | 6.4 | 20.9 | 0.00 | 0.00 | 0.00 | 34 | 1008.7 |
| 20260503232052 | 15 | 305 | 6.4 | 20.9 | 0.00 | 0.00 | 0.00 | 33 | 1008.7 |
| 20260503231556 | 16 | 245 | 6.4 | 20.9 | 0.00 | 0.00 | 0.00 | 33 | 1008.7 |
| 20260503231053 | 16 | 319 | 8.0 | 17.7 | 0.00 | 0.00 | 0.00 | 33 | 1008.7 |
| 20260503230556 | 16 | 290 | 4.8 | 19.3 | 0.00 | 0.00 | 0.00 | 32 | 1008.6 |
| 20260503230100 | 16 | 290 | 8.0 | 19.3 | 0.00 | 0.00 | 0.00 | 32 | 1008.5 |
| 20260503225555 | 16 | 284 | 6.4 | 19.3 | 0.00 | 0.00 | 0.00 | 32 | 1008.5 |
| 20260503225055 | 16 | 254 | 9.7 | 19.3 | 0.00 | 0.00 | 0.00 | 32 | 1008.5 |
| 20260503224555 | 16 | 279 | 8.0 | 24.1 | 0.00 | 0.00 | 0.00 | 32 | 1008.5 |
| 20260503224055 | 16 | 296 | 8.0 | 24.1 | 0.00 | 0.00 | 0.00 | 31 | 1008.5 |
| 20260503223555 | 16 | 297 | 6.4 | 20.9 | 0.00 | 0.00 | 0.00 | 31 | 1008.5 |
| 20260503223057 | 16 | 254 | 6.4 | 20.9 | 0.00 | 0.00 | 0.00 | 31 | 1008.3 |
| 20260503222554 | 16 | 298 | 6.4 | 19.3 | 0.00 | 0.00 | 0.00 | 31 | 1008.4 |
| 20260503222054 | 16 | 281 | 11.3 | 22.5 | 0.00 | 0.00 | 0.00 | 31 | 1008.5 |
| 20260503221555 | 16 | 268 | 6.4 | 24.1 | 0.00 | 0.00 | 0.00 | 31 | 1008.4 |
| 20260503221055 | 16 | 320 | 11.3 | 24.1 | 0.00 | 0.00 | 0.00 | 31 | 1008.6 |
| 20260503220555 | 16 | 288 | 8.0 | 17.7 | 0.00 | 0.00 | 0.00 | 31 | 1008.4 |
| 20260503220116 | 16 | 281 | 3.2 | 19.3 | 0.00 | 0.00 | 0.00 | 31 | 1008.6 |
| 20260503215551 | 16 | 290 | 3.2 | 20.9 | 0.00 | 0.00 | 0.00 | 31 | 1008.5 |
| 20260503215056 | 16 | 281 | 6.4 | 20.9 | 0.00 | 0.00 | 0.00 | 31 | 1008.6 |
| 20260503214553 | 16 | 304 | 9.7 | 20.9 | 0.00 | 0.00 | 0.00 | 31 | 1008.6 |
| 20260503214054 | 16 | 22 | 4.8 | 19.3 | 0.00 | 0.00 | 0.00 | 32 | 1008.6 |
| 20260503213552 | 16 | 214 | 4.8 | 25.7 | 0.00 | 0.00 | 0.00 | 32 | 1008.4 |
| 20260503213054 | 16 | 238 | 6.4 | 25.7 | 0.00 | 0.00 | 0.00 | 32 | 1008.4 |
| 20260503212555 | 16 | 284 | 9.7 | 25.7 | 0.00 | 0.00 | 0.00 | 32 | 1008.5 |
| 20260503212055 | 16 | 261 | 8.0 | 27.4 | 0.00 | 0.00 | 0.00 | 32 | 1008.3 |
| 20260503211555 | 16 | 321 | 9.7 | 27.4 | 0.00 | 0.00 | 0.00 | 32 | 1008.5 |
| 20260503211055 | 16 | 306 | 9.7 | 20.9 | 0.00 | 0.00 | 0.00 | 31 | 1008.6 |
| 20260503210555 | 16 | 296 | 6.4 | 20.9 | 0.00 | 0.00 | 0.00 | 32 | 1008.4 |
| 20260503210057 | 15 | 284 | 8.0 | 24.1 | 0.00 | 0.00 | 0.00 | 32 | 1008.5 |
| 20260503205555 | 15 | 271 | 6.4 | 24.1 | 0.00 | 0.00 | 0.00 | 33 | 1008.6 |
| 20260503205055 | 15 | 273 | 12.9 | 29.0 | 0.00 | 0.00 | 0.00 | 32 | 1008.6 |
| 20260503204556 | 15 | 279 | 6.4 | 29.0 | 0.00 | 0.00 | 0.00 | 33 | 1008.7 |
| 20260503204054 | 15 | 271 | 11.3 | 25.7 | 0.00 | 0.00 | 0.00 | 32 | 1008.6 |
| 20260503203554 | 16 | 219 | 11.3 | 24.1 | 0.00 | 0.00 | 0.00 | 32 | 1008.5 |
| 20260503203057 | 15 | 355 | 9.7 | 22.5 | 0.00 | 0.00 | 0.00 | 33 | 1008.5 |
| 20260503202558 | 15 | 275 | 4.8 | 19.3 | 0.00 | 0.00 | 0.00 | 33 | 1008.7 |
| 20260503202052 | 15 | 284 | 6.4 | 16.1 | 0.00 | 0.00 | 0.00 | 32 | 1008.8 |
| 20260503201554 | 15 | 317 | 6.4 | 22.5 | 0.00 | 0.00 | 0.00 | 33 | 1008.8 |
| 20260503201058 | 15 | 261 | 4.8 | 22.5 | 0.00 | 0.00 | 0.00 | 33 | 1008.7 |
| 20260503200551 | 15 | 285 | 4.8 | 32.2 | 0.00 | 0.00 | 0.00 | 33 | 1008.7 |
| 20260503200100 | 15 | 297 | 8.0 | 32.2 | 0.00 | 0.00 | 0.00 | 32 | 1008.7 |
| 20260503195555 | 15 | 287 | 14.5 | 32.2 | 0.00 | 0.00 | 0.00 | 33 | 1008.7 |
| 20260503195052 | 15 | 288 | 12.9 | 29.0 | 0.00 | 0.00 | 0.00 | 32 | 1008.7 |
| 20260503194556 | 15 | 285 | 16.1 | 29.0 | 0.00 | 0.00 | 0.00 | 32 | 1008.7 |
| 20260503194055 | 15 | 283 | 14.5 | 29.0 | 0.00 | 0.00 | 0.00 | 32 | 1008.9 |
| 20260503193554 | 15 | 299 | 4.8 | 22.5 | 0.00 | 0.00 | 0.00 | 32 | 1008.8 |
| 20260503193054 | 15 | 90 | 8.0 | 30.6 | 0.00 | 0.00 | 0.00 | 32 | 1008.9 |
| 20260503192555 | 14 | 0 | 9.7 | 30.6 | 0.00 | 0.00 | 0.00 | 32 | 1008.9 |
| 20260503192055 | 14 | 355 | 8.0 | 20.9 | 0.00 | 0.00 | 0.00 | 33 | 1009.0 |
| 20260503191554 | 14 | 30 | 8.0 | 22.5 | 0.00 | 0.00 | 0.00 | 33 | 1008.9 |
| 20260503191055 | 15 | 306 | 8.0 | 25.7 | 0.00 | 0.00 | 0.00 | 32 | 1008.9 |
| 20260503190552 | 15 | 0 | 6.4 | 25.7 | 0.00 | 0.00 | 0.00 | 33 | 1009.1 |
| 20260503190056 | 14 | 360 | 8.0 | 25.7 | 0.00 | 0.00 | 0.00 | 33 | 1009.2 |
| 20260503185554 | 14 | 302 | 6.4 | 32.2 | 0.00 | 0.00 | 0.00 | 34 | 1009.0 |
| 20260503185057 | 14 | 215 | 9.7 | 32.2 | 0.00 | 0.00 | 0.00 | 33 | 1009.2 |
| 20260503184605 | 14 | 254 | 9.7 | 32.2 | 0.00 | 0.00 | 0.00 | 33 | 1009.2 |
| 20260503184055 | 13 | 283 | 8.0 | 32.2 | 0.00 | 0.00 | 0.00 | 33 | 1009.1 |
| 20260503183553 | 13 | 38 | 8.0 | 25.7 | 0.00 | 0.00 | 0.00 | 33 | 1009.3 |
| 20260503183055 | 13 | 23 | 6.4 | 22.5 | 0.00 | 0.00 | 0.00 | 34 | 1009.5 |
| 20260503182556 | 13 | 293 | 9.7 | 29.0 | 0.00 | 0.00 | 0.00 | 34 | 1009.5 |
| 20260503182052 | 13 | 229 | 11.3 | 29.0 | 0.00 | 0.00 | 0.00 | 34 | 1009.3 |
| 20260503181602 | 13 | 317 | 9.7 | 24.1 | 0.00 | 0.00 | 0.00 | 34 | 1009.4 |
| 20260503181056 | 13 | 341 | 8.0 | 22.5 | 0.00 | 0.00 | 0.00 | 34 | 1009.5 |
| 20260503180555 | 13 | 235 | 11.3 | 25.7 | 0.00 | 0.00 | 0.00 | 34 | 1009.4 |
| 20260503180105 | 13 | 189 | 9.7 | 29.0 | 0.00 | 0.00 | 0.00 | 35 | 1009.3 |
| 20260503175554 | 13 | 273 | 11.3 | 29.0 | 0.00 | 0.00 | 0.00 | 35 | 1009.5 |